Time;durP1;ratioP1;P1;durP2;ratioP2;P2;SDS_P1;SDS_P2;PMS_P1;PMS_P2;Temp;Humidity;BMP_temperature;BMP_pressure;BME280_temperature;BME280_humidity;BME280_pressure;Samples;Min_cycle;Max_cycle;Signal;HPM_P1;HPM_P2
2021/08/16 00:03:45;;;;;;;13.90;7.95;;;;;;;21.55;79.44;99459.35;2951120;80;20944;-66
2021/08/16 00:07:48;;;;;;;11.38;7.30;;;;;;;21.50;79.72;99464.59;2945322;80;20979;-66
2021/08/16 00:11:51;;;;;;;12.60;7.17;;;;;;;21.43;79.81;99465.17;2897139;81;20984;-66
2021/08/16 00:15:54;;;;;;;13.18;8.38;;;;;;;21.32;80.34;99472.11;2850161;83;21012;-66
2021/08/16 00:19:56;;;;;;;10.78;7.37;;;;;;;21.22;80.67;99469.87;2855284;83;21008;-65
2021/08/16 00:23:58;;;;;;;7.83;6.90;;;;;;;21.08;81.14;99466.38;2862695;83;21005;-66
2021/08/16 00:28:06;;;;;;;13.20;7.22;;;;;;;20.95;81.58;99460.52;2862727;83;21032;-66
2021/08/16 00:32:09;;;;;;;10.55;8.00;;;;;;;21.00;82.01;99453.12;2862756;83;20988;-66
2021/08/16 00:36:23;;;;;;;13.90;9.38;;;;;;;21.04;81.82;99456.23;2862488;83;21000;-66
2021/08/16 00:40:26;;;;;;;11.55;8.63;;;;;;;20.97;82.23;99454.36;2862836;83;21016;-66
2021/08/16 00:44:35;;;;;;;15.72;8.40;;;;;;;20.92;82.79;99459.59;2862726;82;21059;-66
2021/08/16 00:48:38;;;;;;;10.23;7.12;;;;;;;20.95;83.19;99459.70;2862979;83;20991;-66
2021/08/16 00:52:45;;;;;;;7.67;6.95;;;;;;;21.06;83.25;99454.14;2862835;83;21015;-66
2021/08/16 00:56:47;;;;;;;12.80;8.90;;;;;;;21.18;82.66;99451.05;2862893;83;21043;-66
2021/08/16 01:00:54;;;;;;;10.70;8.85;;;;;;;21.21;82.28;99447.90;2862747;83;21003;-66
2021/08/16 01:04:55;;;;;;;10.20;7.95;;;;;;;21.20;82.09;99444.89;2857667;82;21092;-66
2021/08/16 01:09:00;;;;;;;7.70;6.33;;;;;;;21.21;82.09;99441.14;2851684;83;20989;-66
2021/08/16 01:13:30;;;;;;;9.38;6.70;;;;;;;21.21;81.80;99429.51;2838661;84;21355;-66
2021/08/16 01:17:32;;;;;;;15.35;7.20;;;;;;;21.21;81.64;99438.44;2838360;84;21248;-66
2021/08/16 01:21:34;;;;;;;10.80;6.53;;;;;;;21.22;81.83;99444.18;2838379;84;20987;-66
2021/08/16 01:25:37;;;;;;;11.88;7.45;;;;;;;21.32;81.65;99444.21;2804824;84;21308;-66
2021/08/16 01:29:41;;;;;;;8.53;6.78;;;;;;;21.42;81.36;99439.17;2791422;85;21009;-66
2021/08/16 01:33:43;;;;;;;11.87;7.17;;;;;;;21.44;81.03;99448.41;2804052;83;20982;-66
2021/08/16 01:37:47;;;;;;;11.30;6.58;;;;;;;21.40;81.17;99439.38;2791383;85;20994;-66
2021/08/16 01:42:00;;;;;;;9.60;7.35;;;;;;;21.42;81.14;99431.06;2791283;85;21045;-66
2021/08/16 01:46:04;;;;;;;8.85;6.78;;;;;;;21.51;80.70;99424.32;2804003;85;21064;-66
2021/08/16 01:50:08;;;;;;;8.78;6.85;;;;;;;21.63;79.45;99419.56;2803970;84;21029;-66
2021/08/16 01:54:11;;;;;;;6.63;5.70;;;;;;;21.66;78.86;99419.16;2803797;85;21033;-66
2021/08/16 01:58:13;;;;;;;12.13;5.95;;;;;;;21.72;77.79;99409.33;2791131;85;20979;-66
2021/08/16 02:02:15;;;;;;;13.88;5.08;;;;;;;21.75;77.32;99396.70;2791189;85;21038;-66
2021/08/16 02:06:19;;;;;;;6.33;5.67;;;;;;;21.76;76.96;99397.81;2790887;85;20974;-66
2021/08/16 02:10:23;;;;;;;7.33;5.70;;;;;;;21.78;76.41;99394.36;2804334;83;21013;-66
2021/08/16 02:14:31;;;;;;;9.70;6.47;;;;;;;21.69;75.81;99398.41;2803594;84;21028;-66
2021/08/16 02:18:34;;;;;;;8.58;6.08;;;;;;;21.58;76.47;99405.84;2791261;85;21006;-66
2021/08/16 02:22:37;;;;;;;8.68;6.17;;;;;;;21.53;76.14;99401.93;2803941;85;21053;-66
2021/08/16 02:26:39;;;;;;;9.05;6.67;;;;;;;21.47;76.60;99389.80;2803746;85;21068;-66
2021/08/16 02:30:42;;;;;;;8.20;5.72;;;;;;;21.44;77.09;99380.77;2791355;85;21002;-66
2021/08/16 02:34:45;;;;;;;8.00;5.42;;;;;;;21.40;77.02;99373.61;2791184;85;21014;-66
2021/08/16 02:38:50;;;;;;;6.97;6.15;;;;;;;21.35;76.91;99365.34;2793936;84;21077;-66
2021/08/16 02:43:00;;;;;;;9.55;6.08;;;;;;;21.21;77.05;99374.89;2836210;84;20998;-66
2021/08/16 02:47:03;;;;;;;10.78;6.25;;;;;;;21.13;77.55;99379.22;2816816;84;21018;-66
2021/08/16 02:51:07;;;;;;;7.22;6.15;;;;;;;21.06;77.13;99384.66;2805606;83;21036;-66
2021/08/16 02:55:12;;;;;;;8.28;7.03;;;;;;;20.99;77.48;99393.34;2851487;82;20998;-66
2021/08/16 02:59:15;;;;;;;7.25;6.12;;;;;;;20.92;77.79;99400.64;2851575;82;20954;-66
2021/08/16 03:03:17;;;;;;;7.65;6.40;;;;;;;20.71;77.77;99389.60;2838206;84;21034;-66
2021/08/16 03:07:19;;;;;;;10.95;6.90;;;;;;;20.57;77.72;99396.40;2845797;83;21089;-65
2021/08/16 03:11:23;;;;;;;10.98;8.98;;;;;;;20.47;78.31;99398.73;2847753;83;20983;-65
2021/08/16 03:15:27;;;;;;;7.90;6.67;;;;;;;20.43;79.22;99396.97;2810437;82;21013;-65
2021/08/16 03:19:33;;;;;;;12.70;8.50;;;;;;;20.46;79.82;99396.54;2800417;82;21025;-66
2021/08/16 03:23:38;;;;;;;9.68;7.20;;;;;;;20.48;80.13;99389.05;2800554;83;21068;-66
2021/08/16 03:27:47;;;;;;;10.15;7.92;;;;;;;20.52;80.13;99386.22;2840729;83;21028;-62
2021/08/16 03:31:50;;;;;;;8.73;7.22;;;;;;;20.58;80.54;99387.25;2848178;83;20986;-62
2021/08/16 03:35:54;;;;;;;15.35;8.48;;;;;;;20.63;80.33;99380.67;2847871;83;21013;-62
2021/08/16 03:39:56;;;;;;;13.43;7.45;;;;;;;20.62;80.49;99378.20;2848009;83;21050;-62
2021/08/16 03:44:00;;;;;;;10.50;7.03;;;;;;;20.60;80.01;99382.45;2848217;83;20963;-61
2021/08/16 03:48:02;;;;;;;15.20;7.85;;;;;;;20.57;79.65;99374.78;2848075;83;21005;-61
2021/08/16 03:52:05;;;;;;;11.75;6.72;;;;;;;20.56;80.44;99371.78;2854934;82;20982;-62
2021/08/16 03:56:11;;;;;;;12.03;7.00;;;;;;;20.61;80.59;99372.50;2906798;81;21002;-62
2021/08/16 04:00:14;;;;;;;12.05;7.90;;;;;;;20.55;80.56;99372.83;2865188;82;20951;-62
2021/08/16 04:04:21;;;;;;;11.47;8.80;;;;;;;20.51;81.13;99369.70;2804986;83;21061;-61
2021/08/16 04:08:24;;;;;;;11.95;7.78;;;;;;;20.45;81.87;99360.31;2772252;85;21309;-62
2021/08/16 04:12:29;;;;;;;15.88;8.68;;;;;;;20.44;82.61;99361.32;2786501;84;21042;-61
2021/08/16 04:16:31;;;;;;;12.23;8.40;;;;;;;20.35;83.44;99369.67;2831559;84;21072;-61
2021/08/16 04:20:33;;;;;;;18.60;9.58;;;;;;;20.24;84.14;99370.31;2831250;84;21017;-62
2021/08/16 04:24:36;;;;;;;89.30;23.50;;;;;;;20.27;84.83;99380.72;2830706;84;21072;-61
2021/08/16 04:28:40;;;;;;;45.35;16.00;;;;;;;20.38;85.09;99370.59;2831294;84;21072;-61
2021/08/16 04:32:48;;;;;;;33.13;13.55;;;;;;;20.46;84.85;99376.82;2829930;84;21017;-61
2021/08/16 04:36:51;;;;;;;16.00;10.93;;;;;;;20.59;84.96;99376.75;2831204;84;21055;-61
2021/08/16 04:40:55;;;;;;;11.95;9.45;;;;;;;20.71;84.59;99386.90;2831303;84;21223;-61
2021/08/16 04:44:57;;;;;;;14.38;12.07;;;;;;;20.81;84.36;99385.93;2819581;83;21033;-61
2021/08/16 04:48:59;;;;;;;13.98;11.55;;;;;;;20.87;84.62;99386.44;2816580;84;20981;-61
2021/08/16 04:53:01;;;;;;;16.00;10.90;;;;;;;20.96;83.81;99385.67;2831234;84;21025;-61
2021/08/16 04:57:07;;;;;;;26.70;13.70;;;;;;;21.04;84.52;99384.59;2831309;84;21025;-61
2021/08/16 05:01:11;;;;;;;20.32;12.95;;;;;;;21.21;84.87;99383.00;2831241;83;21013;-61
2021/08/16 05:05:15;;;;;;;34.38;14.85;;;;;;;21.34;84.60;99394.78;2832751;82;21046;-60
2021/08/16 05:09:19;;;;;;;51.75;15.72;;;;;;;21.45;84.18;99385.98;2838720;84;21018;-61
2021/08/16 05:13:21;;;;;;;37.83;16.62;;;;;;;21.55;83.90;99381.43;2838065;84;21018;-61
2021/08/16 05:17:23;;;;;;;33.55;16.55;;;;;;;21.61;83.81;99383.75;2830126;84;21323;-61
2021/08/16 05:21:26;;;;;;;14.60;11.05;;;;;;;21.79;84.13;99393.31;2804479;85;21012;-61
2021/08/16 05:25:30;;;;;;;13.22;9.18;;;;;;;21.89;83.51;99391.45;2802095;84;21018;-61
2021/08/16 05:29:33;;;;;;;13.55;9.68;;;;;;;22.02;83.12;99389.17;2839107;84;20987;-61
2021/08/16 05:33:36;;;;;;;10.35;8.05;;;;;;;22.14;82.53;99390.61;2838818;84;21038;-61
2021/08/16 05:37:38;;;;;;;10.28;8.50;;;;;;;22.24;81.99;99391.45;2838463;84;21006;-61
2021/08/16 05:41:40;;;;;;;16.35;9.08;;;;;;;22.34;81.21;99382.80;2838826;84;21006;-62
2021/08/16 05:45:47;;;;;;;16.17;10.53;;;;;;;22.49;81.23;99385.15;2838873;84;21085;-61
2021/08/16 05:50:05;;;;;;;12.03;9.13;;;;;;;22.60;80.51;99380.34;2816202;84;21117;-61
2021/08/16 05:54:09;;;;;;;14.70;7.25;;;;;;;22.60;80.47;99384.41;2791720;85;21028;-61
2021/08/16 05:58:13;;;;;;;8.18;6.95;;;;;;;22.70;80.35;99383.86;2791661;85;21106;-61
2021/08/16 06:02:15;;;;;;;8.55;7.50;;;;;;;22.81;80.17;99386.33;2791337;85;21014;-61
2021/08/16 06:06:17;;;;;;;12.58;7.70;;;;;;;22.98;80.78;99383.80;2794679;85;21034;-61
2021/08/16 06:10:21;;;;;;;7.62;6.37;;;;;;;23.15;79.18;99388.03;2800694;85;20982;-61
2021/08/16 06:14:24;;;;;;;11.07;9.37;;;;;;;23.28;79.72;99391.10;2800956;85;21017;-61
2021/08/16 06:18:30;;;;;;;14.83;7.42;;;;;;;23.50;79.47;99388.69;2800665;85;21038;-61
2021/08/16 06:22:36;;;;;;;15.43;10.53;;;;;;;23.75;78.68;99379.50;2800642;85;20970;-62
2021/08/16 06:26:42;;;;;;;19.23;10.60;;;;;;;23.97;77.56;99378.91;2791019;85;21222;-61
2021/08/16 06:30:45;;;;;;;12.82;8.40;;;;;;;24.18;77.00;99387.03;2800449;84;21021;-61
2021/08/16 06:34:49;;;;;;;70.30;15.93;;;;;;;24.30;76.02;99399.23;2800731;85;21045;-62
2021/08/16 06:38:52;;;;;;;10.85;6.50;;;;;;;24.32;76.23;99399.02;2753181;85;21110;-61
2021/08/16 06:42:54;;;;;;;11.03;7.15;;;;;;;24.39;77.56;99399.18;2848233;83;21065;-62
2021/08/16 06:46:56;;;;;;;8.65;6.35;;;;;;;24.79;76.97;99396.75;2847872;82;20998;-62
2021/08/16 06:51:01;;;;;;;8.50;6.47;;;;;;;25.29;76.00;99401.18;2848253;82;20997;-62
2021/08/16 06:55:05;;;;;;;9.30;7.20;;;;;;;25.76;74.03;99394.12;2848577;83;21001;-62
2021/08/16 06:59:09;;;;;;;8.43;6.43;;;;;;;26.08;72.89;99400.84;2848313;83;21073;-61
2021/08/16 07:03:13;;;;;;;8.98;5.90;;;;;;;26.55;72.50;99398.76;2848316;82;20990;-62
2021/08/16 07:07:17;;;;;;;7.85;4.90;;;;;;;27.15;68.63;99398.37;2846124;82;20994;-62
2021/08/16 07:11:19;;;;;;;6.85;4.70;;;;;;;27.79;64.67;99394.02;2844051;83;20978;-62
2021/08/16 07:15:27;;;;;;;7.08;3.35;;;;;;;28.28;60.08;99382.58;2844390;83;21005;-62
2021/08/16 07:19:28;;;;;;;7.65;4.05;;;;;;;28.75;57.62;99384.95;2844302;83;21009;-63
2021/08/16 07:23:34;;;;;;;5.22;4.15;;;;;;;29.25;54.55;99378.23;2844423;83;21002;-62
2021/08/16 07:27:38;;;;;;;9.33;3.47;;;;;;;29.61;53.21;99376.37;2844556;83;21083;-63
2021/08/16 07:31:43;;;;;;;4.60;3.77;;;;;;;29.76;50.85;99376.05;2844655;83;21049;-63
2021/08/16 07:35:48;;;;;;;4.67;3.20;;;;;;;29.69;52.50;99368.14;2835326;83;20981;-62
2021/08/16 07:40:01;;;;;;;4.30;3.02;;;;;;;29.57;50.27;99364.86;2796830;84;21041;-63
2021/08/16 07:44:02;;;;;;;9.80;3.12;;;;;;;29.47;51.00;99369.23;2803855;83;21014;-62
2021/08/16 07:48:11;;;;;;;4.55;2.30;;;;;;;29.63;50.22;99366.48;2797038;84;20981;-63
2021/08/16 07:52:13;;;;;;;2.35;2.15;;;;;;;29.72;48.40;99365.38;2798602;83;20969;-62
2021/08/16 07:56:16;;;;;;;4.55;2.20;;;;;;;29.63;48.97;99369.23;2797517;84;21029;-62
2021/08/16 08:00:20;;;;;;;5.10;2.53;;;;;;;29.90;49.48;99370.28;2799416;83;20986;-62
2021/08/16 08:04:23;;;;;;;4.28;2.70;;;;;;;30.26;49.21;99362.53;2844686;83;21005;-62
2021/08/16 08:08:29;;;;;;;3.62;2.20;;;;;;;30.43;46.21;99363.58;2844393;83;20985;-62
2021/08/16 08:12:32;;;;;;;2.00;1.57;;;;;;;30.37;45.88;99366.62;2837843;82;20993;-62
2021/08/16 08:16:49;;;;;;;2.70;2.10;;;;;;;30.20;44.11;99366.40;2837890;82;21006;-62
2021/08/16 08:20:53;;;;;;;253.35;46.35;;;;;;;30.02;44.94;99363.72;2852640;82;21446;-62
2021/08/16 08:24:55;;;;;;;10.50;4.07;;;;;;;29.83;44.00;99368.39;2861925;82;21049;-62
2021/08/16 08:28:57;;;;;;;2.95;1.80;;;;;;;30.05;45.83;99368.08;2844855;83;21045;-63
2021/08/16 08:33:17;;;;;;;2.67;1.60;;;;;;;30.54;44.99;99369.00;2820594;82;21019;-62
2021/08/16 08:37:20;;;;;;;2.90;1.72;;;;;;;30.80;45.24;99372.47;2844542;82;21009;-63
2021/08/16 08:41:24;;;;;;;3.47;1.52;;;;;;;30.76;43.59;99364.53;2830535;83;21013;-62
2021/08/16 08:45:29;;;;;;;3.35;1.92;;;;;;;30.92;45.56;99368.83;2797261;84;20990;-62
2021/08/16 08:50:09;;;;;;;2.17;1.60;;;;;;;31.04;44.10;99369.02;2797046;85;20989;-62
2021/08/16 08:54:14;;;;;;;2.33;1.52;;;;;;;30.97;44.50;99361.66;2797207;84;20974;-62
2021/08/16 08:58:20;;;;;;;3.12;1.47;;;;;;;30.68;43.80;99365.95;2797314;84;21048;-62
2021/08/16 09:02:24;;;;;;;11.18;1.57;;;;;;;30.48;44.07;99368.23;2797115;85;20989;-62
2021/08/16 09:06:41;;;;;;;2.75;1.70;;;;;;;30.45;44.70;99368.77;2797693;83;21033;-62
2021/08/16 09:10:46;;;;;;;2.42;1.60;;;;;;;30.66;44.23;99372.81;2797120;84;21289;-63
2021/08/16 09:14:48;;;;;;;3.05;1.70;;;;;;;30.84;44.13;99368.05;2827000;83;21040;-63
2021/08/16 09:18:51;;;;;;;4.30;2.05;;;;;;;31.02;44.05;99367.11;2811161;83;21056;-63
2021/08/16 09:22:59;;;;;;;5.30;2.02;;;;;;;31.10;44.42;99355.54;2797397;84;21037;-62
2021/08/16 09:27:05;;;;;;;4.50;1.60;;;;;;;31.27;43.83;99354.34;2797031;83;21062;-62
2021/08/16 09:31:27;;;;;;;2.42;1.60;;;;;;;31.28;43.43;99353.23;2797283;83;20999;-62
2021/08/16 09:35:28;;;;;;;5.62;2.70;;;;;;;31.28;43.41;99348.55;2796438;84;21013;-62
2021/08/16 09:39:34;;;;;;;2.00;1.42;;;;;;;31.24;43.77;99351.61;2797266;84;20997;-62
2021/08/16 09:43:36;;;;;;;2.05;1.85;;;;;;;31.17;44.54;99340.91;2824878;83;21006;-62
2021/08/16 09:47:45;;;;;;;3.67;2.40;;;;;;;31.30;43.43;99337.29;2844453;83;20950;-62
2021/08/16 09:51:48;;;;;;;6.83;2.52;;;;;;;31.35;43.00;99335.86;2843869;83;21077;-63
2021/08/16 09:56:02;;;;;;;1.95;1.45;;;;;;;31.53;44.38;99329.39;2819924;83;21032;-64
2021/08/16 10:00:32;;;;;;;2.75;2.00;;;;;;;31.69;44.15;99326.76;2840585;83;21336;-63
2021/08/16 10:04:34;;;;;;;1.92;1.50;;;;;;;31.79;42.83;99323.66;2844473;83;21017;-63
2021/08/16 10:08:44;;;;;;;2.77;2.08;;;;;;;32.04;44.65;99327.52;2838464;83;21045;-63
2021/08/16 10:12:48;;;;;;;3.22;1.45;;;;;;;32.36;44.60;99317.52;2796369;84;20982;-62
2021/08/16 10:16:53;;;;;;;6.15;1.80;;;;;;;32.60;43.92;99315.52;2796898;83;21005;-63
2021/08/16 10:20:56;;;;;;;6.72;1.30;;;;;;;32.76;42.97;99302.91;2796672;84;21022;-62
2021/08/16 10:25:14;;;;;;;4.70;1.60;;;;;;;32.82;42.20;99292.10;2838455;83;21040;-63
2021/08/16 10:29:18;;;;;;;3.00;1.15;;;;;;;32.88;42.19;99293.67;2769830;84;21036;-62
2021/08/16 10:33:21;;;;;;;1.87;1.67;;;;;;;32.71;42.04;99278.22;2844556;83;20985;-61
2021/08/16 10:37:28;;;;;;;2.35;1.70;;;;;;;32.69;42.49;99274.95;2885970;82;20991;-62
2021/08/16 10:41:38;;;;;;;3.52;1.70;;;;;;;32.78;42.42;99268.22;2854989;83;20996;-63
2021/08/16 10:45:51;;;;;;;4.28;2.55;;;;;;;32.73;42.04;99267.18;2859865;82;21003;-63
2021/08/16 10:50:14;;;;;;;3.87;2.12;;;;;;;32.64;42.53;99252.44;2863232;82;20985;-63
2021/08/16 10:54:26;;;;;;;5.45;2.60;;;;;;;32.77;43.28;99245.36;2756760;85;21054;-62
2021/08/16 10:58:28;;;;;;;7.55;3.00;;;;;;;33.03;43.94;99251.87;2797873;83;20989;-63
2021/08/16 11:02:32;;;;;;;5.20;2.70;;;;;;;33.22;44.57;99257.88;2719467;86;21023;-62
2021/08/16 11:06:34;;;;;;;;;;;;;;;33.47;44.48;99260.19;2846568;82;20961;-63
2021/08/16 11:10:45;;;;;;;2.62;1.90;;;;;;;33.81;44.23;99251.27;2809333;83;20105;-64
2021/08/16 11:14:49;;;;;;;10.60;2.70;;;;;;;33.89;43.37;99249.73;2793289;85;21072;-63
2021/08/16 11:18:55;;;;;;;3.17;2.58;;;;;;;33.60;43.67;99253.59;2845621;83;21018;-63
2021/08/16 11:23:01;;;;;;;3.47;2.35;;;;;;;33.26;43.60;99242.38;2844203;83;20950;-63
2021/08/16 11:31:33;;;;;;;6.05;2.52;;;;;;;32.89;45.04;99231.98;2806392;84;21025;-63
2021/08/16 11:35:35;;;;;;;21.48;5.55;;;;;;;32.79;46.46;99225.80;2701390;88;21093;-63
2021/08/16 11:39:46;;;;;;;6.92;3.12;;;;;;;32.82;47.21;99219.14;2777588;84;21561;-63
2021/08/16 11:43:48;;;;;;;7.47;3.98;;;;;;;32.71;46.52;99213.53;2791843;84;20978;-63
2021/08/16 11:47:51;;;;;;;4.40;2.90;;;;;;;32.64;46.65;99205.66;2812161;84;20961;-63
2021/08/16 11:51:54;;;;;;;4.78;3.52;;;;;;;32.45;46.82;99212.57;2805452;84;20967;-63
2021/08/16 11:56:06;;;;;;;9.70;3.92;;;;;;;32.25;47.32;99215.85;2800847;85;21241;-63
2021/08/16 12:00:11;;;;;;;5.58;2.95;;;;;;;32.00;47.69;99204.64;2786565;84;21080;-63
2021/08/16 12:04:24;;;;;;;25.85;6.15;;;;;;;31.79;48.67;99213.16;2812372;84;20954;-64
2021/08/16 12:08:27;;;;;;;17.73;6.00;;;;;;;30.87;52.03;99263.19;2771421;84;21057;-62
2021/08/16 12:12:30;;;;;;;18.40;4.62;;;;;;;29.16;56.19;99259.69;2840180;84;21013;-65
2021/08/16 12:16:35;;;;;;;5.97;3.87;;;;;;;26.83;69.02;99302.25;2821902;84;21064;-62
2021/08/16 12:20:47;;;;;;;;;;;;;;;25.17;74.58;99312.30;2830853;82;21027;-63
2021/08/16 12:25:03;;;;;;;8.60;5.97;;;;;;;24.03;81.28;99371.74;2808035;84;20121;-62
2021/08/16 12:29:24;;;;;;;9.68;5.42;;;;;;;23.46;83.63;99417.88;2811794;83;21062;-62
2021/08/16 12:33:26;;;;;;;7.62;3.70;;;;;;;23.10;85.82;99413.67;2803861;83;20973;-62
2021/08/16 12:37:33;;;;;;;5.50;4.28;;;;;;;22.80;87.24;99390.09;2821789;83;20958;-61
2021/08/16 12:41:38;;;;;;;10.10;4.67;;;;;;;22.61;88.79;99384.70;2847830;83;21211;-61
2021/08/16 12:45:41;;;;;;;7.17;4.22;;;;;;;22.48;89.69;99366.70;2847981;83;20946;-62
2021/08/16 12:49:49;;;;;;;8.80;4.35;;;;;;;22.52;89.27;99353.02;2841611;83;20985;-62
2021/08/16 12:53:51;;;;;;;6.35;5.10;;;;;;;22.76;88.63;99330.59;2846935;83;20991;-63
2021/08/16 12:57:52;;;;;;;6.62;5.08;;;;;;;23.06;88.62;99330.58;2847780;83;21032;-63
2021/08/16 13:01:58;;;;;;;9.30;4.80;;;;;;;23.39;88.09;99308.92;2843160;83;21061;-64
2021/08/16 13:06:01;;;;;;;7.28;4.97;;;;;;;23.75;87.05;99313.53;2803875;83;20997;-64
2021/08/16 13:10:09;;;;;;;7.45;5.50;;;;;;;24.08;85.91;99314.84;2911523;80;21043;-65
2021/08/16 13:14:12;;;;;;;6.87;4.45;;;;;;;24.45;85.62;99322.63;2921880;81;21028;-65
2021/08/16 13:18:16;;;;;;;6.37;5.22;;;;;;;24.60;85.19;99319.93;2882197;81;21004;-65
2021/08/16 13:22:18;;;;;;;6.47;5.15;;;;;;;24.74;84.25;99315.86;2897538;81;20995;-65
2021/08/16 13:26:21;;;;;;;11.83;5.33;;;;;;;24.86;82.61;99300.87;2917265;81;21518;-65
2021/08/16 13:30:23;;;;;;;7.67;5.87;;;;;;;24.92;83.82;99305.32;2922235;81;20980;-66
2021/08/16 13:34:24;;;;;;;8.53;5.97;;;;;;;24.95;84.19;99302.11;2921402;81;20988;-65
2021/08/16 13:38:28;;;;;;;8.78;6.42;;;;;;;25.04;85.20;99302.53;2906705;81;21019;-65
2021/08/16 13:42:30;;;;;;;9.23;5.70;;;;;;;25.03;85.78;99296.00;2916567;81;20984;-66
2021/08/16 13:46:33;;;;;;;8.13;6.00;;;;;;;25.13;88.09;99302.14;2910415;81;21072;-66
2021/08/16 13:50:40;;;;;;;9.53;5.90;;;;;;;25.46;88.72;99291.78;2920759;81;21000;-66
2021/08/16 13:54:43;;;;;;;8.68;5.15;;;;;;;25.77;88.64;99281.38;2901990;81;21079;-65
2021/08/16 13:58:47;;;;;;;9.40;4.87;;;;;;;26.04;87.77;99264.81;2878650;81;21071;-63
2021/08/16 14:02:48;;;;;;;7.83;6.03;;;;;;;26.34;85.52;99279.92;2909742;81;21008;-65
2021/08/16 14:06:55;;;;;;;11.43;6.12;;;;;;;26.57;86.02;99289.73;2900267;80;21031;-64
2021/08/16 14:10:55;;;;;;;10.20;4.97;;;;;;;26.69;84.20;99298.28;2891443;82;21007;-64
2021/08/16 14:14:58;;;;;;;8.13;5.50;;;;;;;26.88;84.81;99312.43;2899738;82;20976;-64
2021/08/16 14:19:00;;;;;;;6.72;5.55;;;;;;;27.07;85.06;99311.50;2877655;82;20996;-65
2021/08/16 14:23:02;;;;;;;7.85;5.35;;;;;;;27.35;85.07;99308.20;2863449;82;20980;-64
2021/08/16 14:27:05;;;;;;;7.47;5.55;;;;;;;27.68;81.42;99302.70;2881024;81;20937;-64
2021/08/16 14:31:07;;;;;;;8.43;5.05;;;;;;;27.75;78.04;99305.48;2883035;82;21059;-64
2021/08/16 14:35:17;;;;;;;6.62;5.70;;;;;;;27.90;78.37;99308.84;2880766;82;20976;-64
2021/08/16 14:39:19;;;;;;;4.47;4.08;;;;;;;27.96;76.02;99298.77;2887520;80;21015;-64
2021/08/16 14:43:21;;;;;;;4.72;4.17;;;;;;;27.98;75.45;99295.22;2901474;80;20931;-64
2021/08/16 14:47:23;;;;;;;8.10;3.58;;;;;;;28.01;74.17;99298.78;2878439;81;20968;-64
2021/08/16 14:51:38;;;;;;;5.90;4.60;;;;;;;28.05;73.80;99291.69;2872324;82;20981;-63
2021/08/16 14:55:40;;;;;;;6.37;4.72;;;;;;;28.16;73.10;99280.84;2850774;83;21068;-63
2021/08/16 14:59:43;;;;;;;5.78;4.58;;;;;;;28.08;72.85;99279.41;2888177;80;29872;-63
2021/08/16 15:03:45;;;;;;;8.08;4.37;;;;;;;28.03;73.97;99284.87;2899984;81;20957;-63
2021/08/16 15:07:47;;;;;;;6.08;4.33;;;;;;;27.97;72.65;99290.01;2901951;80;21024;-64
2021/08/16 15:11:48;;;;;;;4.58;3.98;;;;;;;27.88;73.05;99282.86;2902387;82;21000;-63
2021/08/16 15:15:51;;;;;;;8.23;4.75;;;;;;;27.87;74.61;99275.22;2905601;82;21068;-63
2021/08/16 15:19:52;;;;;;;5.85;5.25;;;;;;;27.99;73.66;99263.23;2905882;82;20952;-63
2021/08/16 15:23:54;;;;;;;6.62;4.55;;;;;;;28.02;71.44;99252.60;2905390;82;21015;-64
2021/08/16 15:28:11;;;;;;;6.92;5.00;;;;;;;27.92;69.71;99245.19;2905927;82;20976;-63
2021/08/16 15:32:17;;;;;;;7.62;4.95;;;;;;;27.89;67.94;99248.98;2905961;82;20999;-64
2021/08/16 15:36:19;;;;;;;6.08;4.20;;;;;;;27.94;65.08;99237.54;2874681;80;21211;-64
2021/08/16 15:40:21;;;;;;;11.50;4.78;;;;;;;27.90;63.84;99243.27;2772989;84;20979;-63
2021/08/16 15:44:33;;;;;;;6.58;4.25;;;;;;;27.91;61.78;99238.64;2818920;84;20997;-63
2021/08/16 15:48:35;;;;;;;7.65;4.50;;;;;;;27.87;60.95;99245.17;2905896;82;20964;-65
2021/08/16 15:52:40;;;;;;;7.60;5.03;;;;;;;27.84;58.79;99241.61;2905621;82;20979;-65
2021/08/16 15:56:42;;;;;;;5.50;3.67;;;;;;;27.59;58.44;99219.08;2905625;82;21027;-65
2021/08/16 16:00:44;;;;;;;5.70;3.75;;;;;;;27.59;58.44;99219.08;2905425;82;21015;-65
2021/08/16 16:04:49;;;;;;;7.22;4.10;;;;;;;27.71;57.32;99241.55;2905567;82;21003;-64
2021/08/16 16:09:15;;;;;;;4.65;4.10;;;;;;;27.68;57.54;99248.08;2903350;82;20976;-65
2021/08/16 16:13:19;;;;;;;5.37;3.52;;;;;;;27.62;57.02;99247.22;2899883;82;21023;-65
2021/08/16 16:17:22;;;;;;;6.83;5.05;;;;;;;27.50;57.59;99235.11;2899901;82;21027;-64
2021/08/16 16:21:25;;;;;;;10.05;3.87;;;;;;;27.47;57.41;99239.73;2900051;82;20961;-64
2021/08/16 16:25:27;;;;;;;5.25;4.03;;;;;;;27.44;57.51;99243.00;2900213;82;21004;-64
2021/08/16 16:29:36;;;;;;;5.00;3.95;;;;;;;27.40;57.01;99241.33;2900275;82;20960;-64
2021/08/16 16:33:37;;;;;;;7.30;3.90;;;;;;;27.28;55.99;99244.78;2880812;82;21019;-63
2021/08/16 16:37:41;;;;;;;8.68;5.45;;;;;;;27.17;55.79;99250.19;2900519;82;21043;-64
2021/08/16 16:41:43;;;;;;;8.60;3.90;;;;;;;27.15;56.48;99257.82;2898886;82;20988;-65
2021/08/16 16:46:07;;;;;;;7.05;4.92;;;;;;;27.11;56.45;99258.03;2877062;82;20980;-65
2021/08/16 16:50:10;;;;;;;8.38;5.15;;;;;;;27.08;57.92;99288.05;2899299;82;21040;-65
2021/08/16 16:54:12;;;;;;;6.87;4.45;;;;;;;27.03;58.59;99285.29;2889925;81;21474;-65
2021/08/16 16:58:37;;;;;;;7.15;4.22;;;;;;;26.92;58.36;99292.56;2864770;82;21009;-66
2021/08/16 17:02:40;;;;;;;10.18;5.55;;;;;;;26.77;58.31;99295.91;2880910;82;21050;-66
2021/08/16 17:06:42;;;;;;;17.15;10.48;;;;;;;26.53;57.75;99306.32;2899756;82;20984;-65
2021/08/16 17:10:44;;;;;;;7.67;3.95;;;;;;;26.26;58.02;99317.18;2903174;82;21060;-64
2021/08/16 17:14:46;;;;;;;8.73;4.75;;;;;;;26.01;58.29;99316.56;2921630;81;21086;-65
2021/08/16 17:18:49;;;;;;;5.03;3.08;;;;;;;25.71;59.10;99321.85;2921049;81;20976;-65
2021/08/16 17:22:54;;;;;;;10.30;3.40;;;;;;;25.34;59.96;99340.02;2918160;81;20969;-64
2021/08/16 17:27:00;;;;;;;7.33;3.80;;;;;;;24.96;60.16;99357.34;2920618;81;21029;-65
2021/08/16 17:31:01;;;;;;;;;;;;;;;24.69;60.15;99357.91;2905641;82;21044;-66
2021/08/16 17:35:04;;;;;;;15.35;6.15;;;;;;;24.55;59.79;99368.77;2903242;80;20119;-64
2021/08/16 17:39:06;;;;;;;13.50;6.65;;;;;;;24.45;59.95;99358.52;2905111;82;21044;-65
2021/08/16 17:43:15;;;;;;;8.50;5.08;;;;;;;24.35;59.71;99379.50;2903907;81;20976;-65
2021/08/16 17:47:18;;;;;;;22.13;3.22;;;;;;;24.24;59.50;99374.39;2903966;82;21371;-64
2021/08/16 17:51:20;;;;;;;10.78;3.17;;;;;;;24.17;59.22;99387.25;2889562;81;21049;-65
2021/08/16 17:55:22;;;;;;;8.08;4.05;;;;;;;24.12;59.53;99392.06;2904341;81;21024;-64
2021/08/16 17:59:25;;;;;;;29.95;16.90;;;;;;;24.02;59.31;99396.73;2871672;81;21031;-65
2021/08/16 18:03:26;;;;;;;10.38;5.55;;;;;;;23.90;60.02;99385.00;2854471;83;21106;-65
2021/08/16 18:07:29;;;;;;;7.30;2.72;;;;;;;23.69;61.50;99394.02;2887867;80;20980;-64
2021/08/16 18:11:32;;;;;;;5.67;2.85;;;;;;;23.45;62.59;99392.64;2902972;82;21012;-64
2021/08/16 18:15:34;;;;;;;5.40;2.72;;;;;;;23.29;63.52;99390.59;2882647;82;20968;-65
2021/08/16 18:19:37;;;;;;;7.67;3.50;;;;;;;23.10;63.83;99389.26;2912225;82;20985;-65
2021/08/16 18:23:39;;;;;;;3.87;2.83;;;;;;;22.86;64.56;99385.11;2912356;80;20946;-64
2021/08/16 18:27:42;;;;;;;11.40;2.70;;;;;;;22.59;65.09;99385.42;2910944;82;20969;-64
2021/08/16 18:31:48;;;;;;;5.87;2.90;;;;;;;22.34;65.83;99394.44;2878879;82;21020;-64
2021/08/16 18:35:53;;;;;;;4.03;2.30;;;;;;;22.17;66.33;99412.34;2879270;82;20997;-64
2021/08/16 18:39:55;;;;;;;6.05;3.20;;;;;;;21.97;67.12;99436.37;2863230;82;21014;-65
2021/08/16 18:43:58;;;;;;;6.87;2.87;;;;;;;21.80;67.54;99438.27;2910664;81;21036;-64
2021/08/16 18:48:01;;;;;;;7.30;3.50;;;;;;;21.72;68.24;99443.97;2912136;81;21083;-65
2021/08/16 18:52:04;;;;;;;6.53;2.42;;;;;;;21.65;68.53;99444.02;2905317;82;21015;-66
2021/08/16 18:56:06;;;;;;;9.50;2.92;;;;;;;21.54;69.33;99445.52;2862301;83;21313;-65
2021/08/16 19:00:11;;;;;;;13.83;3.83;;;;;;;21.45;68.63;99449.55;2860378;81;69917;-68
2021/08/16 19:04:15;;;;;;;3.57;2.80;;;;;;;21.36;68.01;99440.02;2772368;84;21112;-70
2021/08/16 19:08:19;;;;;;;5.25;3.35;;;;;;;21.27;67.83;99446.20;2765097;85;21884;-69
2021/08/16 19:12:21;;;;;;;9.05;3.25;;;;;;;21.19;67.78;99440.53;2796463;85;21105;-67
2021/08/16 19:16:25;;;;;;;5.17;2.70;;;;;;;21.05;68.31;99447.89;2773241;85;21045;-68